• Join FlightAware (Why Join?)
  • Login
  • US Flag 
06:42AM EDT


 

Airport Tracker/Info


-or-


 

Live Flight TrackerFlight Track Log ✈ AWE194 ✈ 30-Jun-2013 ✈ KMSP - KPHX

Flight Track Log - Related Links

Times and Time Zones

All times are in EDT time to prevent confusion due to time zone crossing. See the AWE194 flight status page for this flight to view local times or setup timezone preferences in your user account.

Time Position Orientation Groundspeed Altitude Reporting Facility
EDT Latitude Longitude Course Direction KTS MPH feet Rate Location/Type
10:07PM 44.8780 -93.1860 North 1,400  Level FlightAware
10:08PM 44.8490 -93.1250 124° Southeast 229 264 3,300 2,280 Climbing FlightAware
10:09PM 44.7850 -93.1280 182° South 273 314 6,200 2,460 Climbing FlightAware
10:10PM 44.7580 -93.2080 245° Southwest 303 349 8,100 2,640 Climbing FlightAware
10:10PM 44.7400 -93.2600 244° Southwest 309 356 9,500 2,460 Climbing FlightAware
10:11PM 44.7130 -93.3370 244° Southwest 332 382 11,000 1,860 Climbing FlightAware
10:12PM 44.6730 -93.4500 244° Southwest 376 433 12,500 1,860 Climbing FlightAware
10:13PM 44.6400 -93.5430 244° Southwest 390 449 14,100 2,280 Climbing FlightAware
10:14PM 44.6000 -93.6550 243° Southwest 396 456 16,000 2,280 Climbing FlightAware
10:14PM 44.5660 -93.7520 244° Southwest 409 471 17,400 1,860 Climbing FlightAware
10:15PM 44.5350 -93.8390 243° Southwest 413 475 18,800 2,100 Climbing FlightAware
10:16PM 44.4890 -93.9680 243° Southwest 420 483 20,600 1,380 Climbing FlightAware
10:16PM 44.4570 -94.0540 242° Southwest 420 483 20,700 960 Climbing FlightAware
10:17PM 44.4230 -94.1500 244° Southwest 430 495 21,900 840 Climbing FlightAware
10:18PM 44.3860 -94.2510 243° Southwest 430 495 21,900  Level FlightAware
10:19PM 44.3400 -94.3780 243° Southwest 430 495 21,900  Level FlightAware
10:19PM 44.3120 -94.4530 242° Southwest 430 495 21,900  Level FlightAware
10:20PM 44.2750 -94.5540 243° Southwest 430 495 21,900 3,300 Level FlightAware
10:21PM 44.0972 -94.7608 243° Southwest 464 534 28,400 1,800 Climbing Minneapolis Center
10:27PM 43.6319 -95.6257 243° Southwest 463 533 34,700 1,020 Climbing FlightAware ADS-B
10:28PM 43.6017 -95.7082 243° Southwest 463 533 35,000 540 Climbing FlightAware ADS-B
10:28PM 43.5704 -95.7946 243° Southwest 466 536 35,300 540 Climbing FlightAware ADS-B
10:29PM 43.5408 -95.8767 244° Southwest 467 537 35,600 660 Climbing FlightAware ADS-B
10:29PM 43.5116 -95.9569 243° Southwest 466 536 36,000 360 Climbing FlightAware ADS-B
10:30PM 43.4815 -96.0395 243° Southwest 465 535 36,000  Level FlightAware ADS-B
10:30PM 43.4525 -96.1191 243° Southwest 466 536 36,000  Level FlightAware ADS-B
10:31PM 43.4230 -96.1999 243° Southwest 463 533 36,000  Level FlightAware ADS-B
10:31PM 43.3937 -96.2797 243° Southwest 465 535 36,000  Level FlightAware ADS-B
10:32PM 43.3639 -96.3604 243° Southwest 466 536 36,000  Level FlightAware ADS-B
10:32PM 43.3318 -96.4472 243° Southwest 469 540 36,000  Level FlightAware ADS-B
10:33PM 43.2937 -96.5502 243° Southwest 470 541 36,000  Level FlightAware ADS-B
10:34PM 43.2637 -96.6310 243° Southwest 470 541 36,000  Level FlightAware ADS-B
10:34PM 43.2340 -96.7106 243° Southwest 470 541 36,000  Level FlightAware ADS-B
10:35PM 43.2042 -96.7904 243° Southwest 469 540 36,000  Level FlightAware ADS-B
10:35PM 43.1704 -96.8805 243° Southwest 468 539 36,000  Level FlightAware ADS-B
10:36PM 43.1403 -96.9605 243° Southwest 468 539 36,000  Level FlightAware ADS-B
10:36PM 43.1105 -97.0396 243° Southwest 468 539 36,000  Level FlightAware ADS-B
10:37PM 43.0804 -97.1191 243° Southwest 468 539 36,000  Level FlightAware ADS-B
10:37PM 43.0435 -97.2168 243° Southwest 468 539 36,000  Level FlightAware ADS-B
10:38PM 43.0127 -97.2978 243° Southwest 468 539 36,000  Level FlightAware ADS-B
10:38PM 42.9827 -97.3764 242° Southwest 467 537 36,000  Level FlightAware ADS-B
10:39PM 42.9519 -97.4570 242° Southwest 467 537 36,000  Level FlightAware ADS-B
10:39PM 42.9217 -97.5357 242° Southwest 466 536 36,000  Level FlightAware ADS-B
10:40PM 42.8917 -97.6135 242° Southwest 466 536 36,000  Level FlightAware ADS-B
10:40PM 42.8600 -97.6957 242° Southwest 464 534 36,000  Level FlightAware ADS-B
10:41PM 42.8295 -97.7746 242° Southwest 464 534 36,000  Level FlightAware ADS-B
10:41PM 42.7984 -97.8548 242° Southwest 465 535 36,000  Level FlightAware ADS-B
10:42PM 42.7577 -97.9593 242° Southwest 465 535 36,000  Level FlightAware ADS-B
10:43PM 42.6882 -98.1371 242° Southwest 464 534 36,000  Level FlightAware ADS-B
10:44PM 42.6552 -98.2210 242° Southwest 463 533 36,000  Level FlightAware ADS-B
10:44PM 42.6227 -98.3032 242° Southwest 465 535 36,000  Level FlightAware ADS-B
10:45PM 42.5923 -98.3805 242° Southwest 465 535 36,000  Level FlightAware ADS-B
10:45PM 42.5612 -98.4591 242° Southwest 466 536 36,000  Level FlightAware ADS-B
10:46PM 42.5290 -98.5401 242° Southwest 467 537 36,000  Level FlightAware ADS-B
10:46PM 42.4979 -98.6173 241° Southwest 469 540 36,000  Level FlightAware ADS-B
10:47PM 42.4775 -98.6617 238° Southwest 474 545 36,000  Level FlightAware ADS-B
10:47PM 42.4604 -98.6949 235° Southwest 477 549 36,000  Level FlightAware ADS-B
10:47PM 42.4423 -98.7265 232° Southwest 481 554 36,000  Level FlightAware ADS-B
10:48PM 42.3978 -98.7952 229° Southwest 485 558 36,000  Level FlightAware ADS-B
10:48PM 42.3514 -98.8647 228° Southwest 484 557 36,000 60 Level FlightAware ADS-B
10:49PM 42.3053 -98.9336 228° Southwest 482 555 36,100  Climbing FlightAware ADS-B
10:49PM 42.2603 -99.0004 228° Southwest 481 554 36,000 -120 Descending FlightAware ADS-B
10:50PM 42.2154 -99.0672 228° Southwest 479 551 36,000  Level FlightAware ADS-B
10:50PM 42.1706 -99.1333 228° Southwest 478 550 36,000  Level FlightAware ADS-B
10:51PM 42.1259 -99.1994 228° Southwest 477 549 36,000  Level FlightAware ADS-B
10:51PM 42.0811 -99.2654 228° Southwest 476 548 36,000  Level FlightAware ADS-B
10:52PM 42.0015 -99.3825 228° Southwest 476 548 36,000  Level FlightAware ADS-B
10:52PM 41.9555 -99.4497 227° Southwest 476 548 36,000  Level FlightAware ADS-B
10:53PM 41.9097 -99.5168 227° Southwest 476 548 36,000  Level FlightAware ADS-B
10:53PM 41.8643 -99.5830 227° Southwest 476 548 36,000  Level FlightAware ADS-B
10:54PM 41.8193 -99.6486 227° Southwest 476 548 36,000  Level FlightAware ADS-B
10:55PM 41.7732 -99.7154 227° Southwest 476 548 36,000  Level FlightAware ADS-B
10:55PM 41.7182 -99.7948 227° Southwest 475 547 36,000  Level FlightAware ADS-B
10:56PM 41.6678 -99.8675 227° Southwest 474 545 36,000  Level FlightAware ADS-B
10:56PM 41.6230 -99.9322 227° Southwest 474 545 36,000  Level FlightAware ADS-B
10:57PM 41.5769 -99.9984 227° Southwest 474 545 36,000  Level FlightAware ADS-B
10:58PM 41.5017 -100.1067 227° Southwest 476 548 36,000  Level Denver Center
10:59PM 41.4161 -100.2281 227° Southwest 474 545 36,000  Level Denver Center
11:05PM 40.8702 -101.0120 227° Southwest 466 536 36,000  Level FlightAware ADS-B
11:05PM 40.8259 -101.0770 228° Southwest 464 534 36,000  Level FlightAware ADS-B
11:06PM 40.7827 -101.1410 228° Southwest 462 532 36,000  Level FlightAware ADS-B
11:06PM 40.7375 -101.2070 228° Southwest 463 533 36,000  Level FlightAware ADS-B
11:07PM 40.6936 -101.2720 228° Southwest 464 534 36,000  Level FlightAware ADS-B
11:07PM 40.6496 -101.3360 228° Southwest 465 535 36,000  Level FlightAware ADS-B
11:08PM 40.6053 -101.4010 228° Southwest 464 534 36,000  Level FlightAware ADS-B
11:08PM 40.5605 -101.4660 228° Southwest 464 534 36,000  Level FlightAware ADS-B
11:09PM 40.5164 -101.5300 228° Southwest 464 534 36,000  Level FlightAware ADS-B
11:09PM 40.4728 -101.5930 228° Southwest 464 534 36,000  Level FlightAware ADS-B
11:10PM 40.4298 -101.6560 228° Southwest 462 532 36,000  Level FlightAware ADS-B
11:10PM 40.3845 -101.7210 228° Southwest 461 531 36,000  Level FlightAware ADS-B
11:11PM 40.3413 -101.7830 228° Southwest 461 531 36,000  Level FlightAware ADS-B
11:11PM 40.2966 -101.8480 228° Southwest 462 532 36,000  Level FlightAware ADS-B
11:12PM 40.2511 -101.9130 227° Southwest 462 532 36,000  Level FlightAware ADS-B
11:12PM 40.2079 -101.9750 228° Southwest 461 531 36,000  Level FlightAware ADS-B
11:13PM 40.1580 -102.0460 227° Southwest 462 532 36,000  Level FlightAware ADS-B
11:13PM 40.1132 -102.1100 228° Southwest 462 532 36,000  Level FlightAware ADS-B
11:14PM 40.0699 -102.1720 228° Southwest 461 531 36,000  Level FlightAware ADS-B
11:14PM 40.0263 -102.2340 227° Southwest 463 533 36,000  Level FlightAware ADS-B
11:15PM 39.9826 -102.2950 227° Southwest 464 534 36,000  Level FlightAware ADS-B
11:15PM 39.9382 -102.3580 227° Southwest 465 535 36,000  Level FlightAware ADS-B
11:16PM 39.8940 -102.4210 228° Southwest 465 535 36,000  Level FlightAware ADS-B
11:16PM 39.8501 -102.4830 227° Southwest 465 535 36,000  Level FlightAware ADS-B
11:17PM 39.8061 -102.5440 227° Southwest 463 533 36,000  Level FlightAware ADS-B
11:17PM 39.7679 -102.5980 227° Southwest 463 533 36,000  Level FlightAware ADS-B
11:18PM 39.7409 -102.6280 221° Southwest 469 540 36,000  Level FlightAware ADS-B
11:18PM 39.6860 -102.6740 213° Southwest 470 541 36,000  Level FlightAware ADS-B
11:19PM 39.6302 -102.7210 213° Southwest 468 539 36,000  Level FlightAware ADS-B
11:19PM 39.5752 -102.7660 212° Southwest 467 537 36,000  Level FlightAware ADS-B
11:20PM 39.5195 -102.8130 213° Southwest 468 539 36,000  Level FlightAware ADS-B
11:20PM 39.4643 -102.8590 213° Southwest 469 540 36,000 -120 Level FlightAware ADS-B
11:21PM 39.4093 -102.9040 212° Southwest 470 541 35,900 -180 Descending FlightAware ADS-B
11:21PM 39.3851 -102.9250 214° Southwest 468 539 35,900 240 Level FlightAware ADS-B
11:21PM 39.3682 -102.9420 218° Southwest 466 536 36,000 240 Climbing FlightAware ADS-B
11:21PM 39.3441 -102.9700 222° Southwest 461 531 36,000  Level FlightAware ADS-B
11:22PM 39.3275 -102.9930 227° Southwest 458 527 36,000  Level FlightAware ADS-B
11:22PM 39.2881 -103.0580 232° Southwest 455 524 36,000  Level FlightAware ADS-B
11:23PM 39.2487 -103.1230 232° Southwest 454 522 36,000  Level FlightAware ADS-B
11:23PM 39.2094 -103.1880 232° Southwest 453 521 36,000  Level FlightAware ADS-B
11:24PM 39.1700 -103.2540 232° Southwest 454 522 36,000  Level FlightAware ADS-B
11:24PM 39.1310 -103.3190 232° Southwest 454 522 36,000  Level FlightAware ADS-B
11:25PM 39.0918 -103.3830 232° Southwest 455 524 36,000  Level FlightAware ADS-B
11:25PM 39.0516 -103.4500 232° Southwest 456 525 36,000  Level FlightAware ADS-B
11:26PM 39.0126 -103.5140 232° Southwest 457 526 36,000  Level FlightAware ADS-B
11:26PM 38.9726 -103.5800 232° Southwest 457 526 36,000  Level FlightAware ADS-B
11:27PM 38.9330 -103.6450 232° Southwest 458 527 36,000  Level FlightAware ADS-B
11:27PM 38.8929 -103.7100 232° Southwest 459 528 36,000  Level FlightAware ADS-B
11:28PM 38.8502 -103.7800 232° Southwest 459 528 36,000  Level FlightAware ADS-B
11:28PM 38.8107 -103.8440 232° Southwest 457 526 36,000  Level FlightAware ADS-B
11:29PM 38.7710 -103.9090 232° Southwest 456 525 36,000  Level FlightAware ADS-B
11:29PM 38.7314 -103.9740 232° Southwest 454 522 36,000  Level FlightAware ADS-B
11:30PM 38.6942 -104.0340 232° Southwest 456 525 36,000  Level FlightAware ADS-B
11:30PM 38.6536 -104.1000 232° Southwest 454 522 36,000  Level FlightAware ADS-B
11:31PM 38.6135 -104.1640 231° Southwest 444 511 36,000  Level FlightAware ADS-B
11:31PM 38.5756 -104.2250 232° Southwest 434 499 36,000  Level FlightAware ADS-B
11:32PM 38.5358 -104.2890 232° Southwest 430 495 36,000  Level FlightAware ADS-B
11:32PM 38.4986 -104.3490 232° Southwest 429 494 36,000  Level FlightAware ADS-B
11:33PM 38.4612 -104.4090 231° Southwest 426 490 36,000  Level FlightAware ADS-B
11:33PM 38.4232 -104.4700 232° Southwest 424 488 36,000  Level FlightAware ADS-B
11:34PM 38.3821 -104.5360 232° Southwest 423 487 36,000  Level FlightAware ADS-B
11:34PM 38.3401 -104.6020 231° Southwest 422 486 36,000  Level FlightAware ADS-B
11:35PM 38.2857 -104.6890 231° Southwest 420 483 36,000  Level FlightAware ADS-B
11:36PM 38.2466 -104.7510 231° Southwest 418 481 36,000  Level FlightAware ADS-B
11:36PM 38.2093 -104.8100 231° Southwest 417 480 36,000  Level FlightAware ADS-B
11:37PM 38.1724 -104.8680 231° Southwest 415 478 36,000  Level FlightAware ADS-B
11:37PM 38.1342 -104.9280 231° Southwest 415 478 36,000  Level FlightAware ADS-B
11:38PM 38.0963 -104.9880 231° Southwest 415 478 36,000  Level FlightAware ADS-B
11:38PM 38.0595 -105.0460 231° Southwest 416 479 36,000  Level FlightAware ADS-B
11:39PM 38.0228 -105.1040 231° Southwest 419 482 36,000  Level FlightAware ADS-B
11:39PM 37.9857 -105.1620 231° Southwest 420 483 36,000  Level FlightAware ADS-B
11:40PM 37.9489 -105.2190 231° Southwest 420 483 36,000  Level FlightAware ADS-B
11:40PM 37.9111 -105.2780 231° Southwest 421 484 36,000  Level FlightAware ADS-B
11:41PM 37.8742 -105.3360 231° Southwest 421 484 36,000  Level FlightAware ADS-B
11:41PM 37.8370 -105.3940 231° Southwest 424 488 36,000  Level FlightAware ADS-B
11:42PM 37.7991 -105.4530 231° Southwest 428 493 36,000  Level FlightAware ADS-B
11:42PM 37.7613 -105.5110 231° Southwest 432 497 36,000  Level FlightAware ADS-B
11:43PM 37.7230 -105.5700 231° Southwest 431 496 36,000  Level FlightAware ADS-B
11:43PM 37.6847 -105.6290 231° Southwest 433 498 36,000  Level FlightAware ADS-B
11:44PM 37.6461 -105.6890 231° Southwest 435 501 36,000  Level FlightAware ADS-B
11:44PM 37.6073 -105.7480 230° Southwest 437 503 36,000  Level FlightAware ADS-B
11:45PM 37.5684 -105.8080 231° Southwest 438 504 36,000  Level FlightAware ADS-B
11:45PM 37.5292 -105.8680 231° Southwest 438 504 36,000  Level FlightAware ADS-B
11:46PM 37.4868 -105.9330 231° Southwest 435 501 36,000  Level FlightAware ADS-B
11:46PM 37.4478 -105.9930 231° Southwest 433 498 36,000  Level FlightAware ADS-B
11:47PM 37.3995 -106.0660 230° Southwest 433 498 36,000  Level FlightAware ADS-B
11:48PM 37.3370 -106.1590 230° Southwest 433 498 36,000  Level FlightAware
11:49PM 37.2960 -106.2200 230° Southwest 433 498 36,000  Level FlightAware
11:50PM 37.2430 -106.3000 230° Southwest 433 498 36,000  Level FlightAware
11:50PM 37.2030 -106.3590 230° Southwest 433 498 36,000  Level FlightAware
11:51PM 37.1510 -106.4380 230° Southwest 433 498 36,000 900 Level FlightAware
11:52PM 37.0460 -106.6000 231° Southwest 439 505 37,400 1,320 Climbing FlightAware
11:52PM 37.0010 -106.6830 236° Southwest 437 503 37,800 420 Climbing FlightAware
11:53PM 36.9500 -106.7780 236° Southwest 442 509 38,000 120 Climbing FlightAware
11:54PM 36.9040 -106.8650 237° Southwest 444 511 38,000  Level FlightAware
11:54PM 36.8580 -106.9500 236° Southwest 443 510 38,000  Level FlightAware
11:55PM 36.8070 -107.0430 236° Southwest 442 509 38,000  Level FlightAware
11:56PM 36.7720 -107.1080 236° Southwest 442 509 38,000  Level FlightAware
11:57PM 36.7260 -107.1940 236° Southwest 442 509 38,000  Level FlightAware
11:57PM 36.6910 -107.2590 236° Southwest 442 509 38,000  Level FlightAware
11:58PM 36.5820 -107.3790 221° Southwest 443 510 38,000  Level FlightAware
11:59PM 36.5430 -107.4320 228° Southwest 444 511 38,000  Level FlightAware
11:59PM 36.4870 -107.5090 228° Southwest 444 511 38,000  Level FlightAware
12:00AM 36.4450 -107.5670 228° Southwest 444 511 38,000  Level FlightAware
12:01AM 36.3890 -107.6450 228° Southwest 444 511 38,000  Level FlightAware
12:01AM 36.3470 -107.7030 228° Southwest 444 511 38,000  Level FlightAware
12:02AM 36.2450 -107.8410 228° Southwest 450 518 38,000  Level FlightAware
12:03AM 36.1840 -107.9210 227° Southwest 450 518 38,000  Level FlightAware
12:03AM 36.1390 -107.9820 228° Southwest 450 518 38,000  Level FlightAware
12:04AM 36.0830 -108.0560 227° Southwest 450 518 38,000  Level FlightAware
12:05AM 35.9810 -108.1990 229° Southwest 38,000  Level FlightAware
12:06AM 35.8870 -108.3250 227° Southwest 445 512 38,000  Level FlightAware
12:07AM 35.8230 -108.4110 227° Southwest 427 491 38,000  Level FlightAware
12:08AM 35.7730 -108.4770 227° Southwest 433 498 38,000  Level FlightAware
12:08AM 35.7070 -108.5660 228° Southwest 443 510 38,000  Level FlightAware
12:09AM 35.6510 -108.6390 227° Southwest 444 511 38,000  Level FlightAware
12:10AM 35.6090 -108.6960 228° Southwest 444 511 38,000  Level FlightAware
12:11AM 35.5450 -108.7790 227° Southwest 444 511 38,000  Level FlightAware
12:11AM 35.4880 -108.8540 227° Southwest 444 511 38,000  Level FlightAware
12:12AM 35.4450 -108.9110 227° Southwest 444 511 38,000  Level FlightAware
12:13AM 35.3340 -109.0560 227° Southwest 447 514 38,000  Level FlightAware
12:14AM 35.2700 -109.1390 227° Southwest 444 511 38,000  Level FlightAware
12:14AM 35.2130 -109.2120 226° Southwest 444 511 38,000 -420 Level FlightAware
12:15AM 35.1170 -109.3360 227° Southwest 444 511 37,300 -600 Descending FlightAware
12:18AM 34.9080 -109.6020 226° Southwest 459 528 36,000 -480 Descending FlightAware
12:18AM 34.8420 -109.6860 226° Southwest 461 531 36,000  Level FlightAware
12:19AM 34.7920 -109.7490 226° Southwest 458 527 36,000  Level FlightAware
12:20AM 34.7230 -109.8490 230° Southwest 453 521 36,000  Level FlightAware
12:21AM 34.6800 -109.9350 239° Southwest 450 518 36,000 -180 Level FlightAware
12:21AM 34.6410 -110.0370 245° Southwest 454 522 35,800 -1,680 Descending FlightAware
12:22AM 34.6050 -110.1310 245° Southwest 471 542 33,700 -3,120 Descending FlightAware
12:23AM 34.5660 -110.2380 246° West 468 539 31,400 -2,700 Descending FlightAware
12:23AM 34.5300 -110.3320 245° Southwest 460 529 30,000 -1,620 Descending FlightAware
12:24AM 34.4930 -110.4310 246° West 431 496 29,200 -1,500 Descending FlightAware
12:25AM 34.4590 -110.5190 245° Southwest 425 489 27,900 -1,980 Descending FlightAware
12:25AM 34.4240 -110.6110 245° Southwest 417 480 26,500 -1,920 Descending FlightAware
12:26AM 34.3900 -110.7010 245° Southwest 408 470 25,200 -1,860 Descending FlightAware
12:27AM 34.3580 -110.7820 244° Southwest 402 463 24,000 -1,800 Descending FlightAware
12:28AM 34.2870 -110.8810 229° Southwest 399 459 22,100 -1,980 Descending FlightAware
12:29AM 34.2200 -110.9690 227° Southwest 391 450 20,400 -1,920 Descending FlightAware
12:29AM 34.1790 -111.0220 227° Southwest 388 447 19,400 -1,740 Descending FlightAware
12:31AM 34.1010 -111.1210 226° Southwest 378 435 17,400 -1,860 Descending FlightAware
12:31AM 34.0450 -111.1930 227° Southwest 370 426 16,000 -1,800 Descending FlightAware
12:32AM 34.0030 -111.2470 227° Southwest 363 418 15,000 -1,380 Descending FlightAware
12:33AM 33.9510 -111.3140 227° Southwest 341 392 14,100 -1,500 Descending FlightAware
12:33AM 33.9070 -111.3700 227° Southwest 327 376 12,800 -1,980 Descending FlightAware
12:34AM 33.8620 -111.4200 223° Southwest 328 377 11,500 -1,800 Descending FlightAware
12:35AM 33.8100 -111.4640 215° Southwest 321 369 10,400 -1,440 Descending FlightAware
12:35AM 33.7810 -111.4890 216° Southwest 313 360 9,900 -1,500 Descending FlightAware
12:36AM 33.7410 -111.5240 216° Southwest 309 356 9,000 -1,680 Descending FlightAware
12:36AM 33.7110 -111.5500 216° Southwest 307 353 8,300 -1,140 Descending FlightAware
12:36AM 33.6930 -111.5650 215° Southwest 296 341 8,200 -180 Descending FlightAware
12:37AM 33.6650 -111.5880 214° Southwest 268 308 8,200  Level FlightAware
12:37AM 33.6320 -111.5970 193° South 251 289 8,200 -120 Level FlightAware
12:38AM 33.6030 -111.6040 191° South 245 282 8,100 -660 Descending FlightAware
12:38AM 33.5650 -111.6120 190° South 238 274 7,600 -1,260 Descending FlightAware
12:39AM 33.5380 -111.6180 190° South 230 265 6,900 -1,680 Descending FlightAware
12:39AM 33.5190 -111.6380 221° Southwest 231 266 6,200 -1,560 Descending FlightAware
12:40AM 33.5010 -111.6760 240° Southwest 218 251 5,400 -1,380 Descending FlightAware
12:40AM 33.4970 -111.6840 239° Southwest 218 251 5,200 -1,440 Descending FlightAware
12:40AM 33.4850 -111.7110 242° Southwest 218 251 4,600 -1,020 Descending FlightAware
12:41AM 33.4680 -111.7460 240° Southwest 211 243 4,200 -420 Descending FlightAware
12:41AM 33.4560 -111.7710 240° Southwest 192 221 4,200  Level FlightAware
12:42AM 33.4460 -111.7930 241° Southwest 179 206 4,200 -180 Level FlightAware
12:42AM 33.4430 -111.8050 253° West 181 208 4,100 -720 Descending FlightAware
12:42AM 33.4410 -111.8350 265° West 178 205 3,700 -900 Descending FlightAware
12:43AM 33.4410 -111.8590 270° West 179 206 3,300 -900 Descending FlightAware
12:44AM 33.4410 -111.9070 270° West 143 165 2,600 -900 Descending FlightAware
12:44AM 33.4410 -111.9180 270° West 149 171 2,400 -840 Descending FlightAware
12:44AM 33.4410 -111.9380 270° West 149 171 2,100 -660 Descending FlightAware
12:45AM 33.4410 -111.9850 270° West 146 168 1,500 -660 Descending FlightAware
12:49AM 33.4370 -112.0030 255° West 12 14 -420 Descending FlightAware
12:54AM 33.4333 -112.0000 90° East  Level FlightAware Approximate